Terminal Aerodrome Forecast
Issued by NWS

Home | Current Version | Previous Version | Text Only | Print | Product List | Glossary On
Versions: 1 2 3 4 5 6 7 8 9 10 11 12 13 14 15 16 17 18 19
000
FTUS46 KOTX 220539 CCA
TAFSFF
TAF COR
KSFF 220539Z 2206/2306 00000KT 6SM BR VCSH FEW002 SCT015 OVC060
      TEMPO 2206/2208 3SM -RA BR OVC015
     FM220800 00000KT 3SM -RA BR OVC005
     FM221600 00000KT 4SM BR VCSH OVC008
     FM221900 00000KT 6SM BR VCSH BKN012 OVC030
     FM230200 19005KT P6SM SCT035 BKN060=

USA.gov is the U.S. government's official web portal to all federal, state and local government web resources and services.